sensor_id;sensor_type;location;lat;lon;timestamp;P1;durP1;ratioP1;P2;durP2;ratioP2
10473;SDS011;5284;50.446;7.904;2023-11-21T00:02:06;35.20;;;12.60;;
10473;SDS011;5284;50.446;7.904;2023-11-21T00:07:11;24.55;;;11.23;;
10473;SDS011;5284;50.446;7.904;2023-11-21T00:12:14;30.33;;;11.30;;
10473;SDS011;5284;50.446;7.904;2023-11-21T00:17:17;24.42;;;10.02;;
10473;SDS011;5284;50.446;7.904;2023-11-21T00:22:22;30.15;;;10.77;;
10473;SDS011;5284;50.446;7.904;2023-11-21T00:27:25;27.38;;;11.85;;
10473;SDS011;5284;50.446;7.904;2023-11-21T00:32:28;23.98;;;10.77;;
10473;SDS011;5284;50.446;7.904;2023-11-21T00:37:33;23.23;;;10.43;;
10473;SDS011;5284;50.446;7.904;2023-11-21T00:42:36;23.80;;;10.85;;
10473;SDS011;5284;50.446;7.904;2023-11-21T00:47:40;34.58;;;12.18;;
10473;SDS011;5284;50.446;7.904;2023-11-21T00:52:46;30.17;;;11.75;;
10473;SDS011;5284;50.446;7.904;2023-11-21T00:57:49;40.90;;;13.48;;
10473;SDS011;5284;50.446;7.904;2023-11-21T01:02:52;26.05;;;11.93;;
10473;SDS011;5284;50.446;7.904;2023-11-21T01:07:56;55.88;;;19.25;;
10473;SDS011;5284;50.446;7.904;2023-11-21T01:13:00;152.88;;;43.63;;
10473;SDS011;5284;50.446;7.904;2023-11-21T01:18:04;40.00;;;12.77;;
10473;SDS011;5284;50.446;7.904;2023-11-21T01:23:09;20.65;;;9.35;;
10473;SDS011;5284;50.446;7.904;2023-11-21T01:28:12;17.45;;;7.55;;
10473;SDS011;5284;50.446;7.904;2023-11-21T01:33:16;17.30;;;8.00;;
10473;SDS011;5284;50.446;7.904;2023-11-21T01:38:21;20.92;;;7.95;;
10473;SDS011;5284;50.446;7.904;2023-11-21T01:43:24;20.45;;;8.43;;
10473;SDS011;5284;50.446;7.904;2023-11-21T01:48:27;24.67;;;7.38;;
10473;SDS011;5284;50.446;7.904;2023-11-21T01:53:32;22.35;;;8.02;;
10473;SDS011;5284;50.446;7.904;2023-11-21T01:58:35;17.15;;;8.23;;
10473;SDS011;5284;50.446;7.904;2023-11-21T02:03:38;15.18;;;5.32;;
10473;SDS011;5284;50.446;7.904;2023-11-21T02:08:43;12.50;;;5.65;;
10473;SDS011;5284;50.446;7.904;2023-11-21T02:13:46;12.43;;;5.15;;
10473;SDS011;5284;50.446;7.904;2023-11-21T02:18:51;13.85;;;5.10;;
10473;SDS011;5284;50.446;7.904;2023-11-21T02:23:57;9.00;;;4.97;;
10473;SDS011;5284;50.446;7.904;2023-11-21T02:29:00;18.35;;;4.75;;
10473;SDS011;5284;50.446;7.904;2023-11-21T02:34:06;10.90;;;4.72;;
10473;SDS011;5284;50.446;7.904;2023-11-21T02:39:10;15.38;;;5.25;;
10473;SDS011;5284;50.446;7.904;2023-11-21T02:44:13;18.13;;;6.70;;
10473;SDS011;5284;50.446;7.904;2023-11-21T02:49:17;9.40;;;4.95;;
10473;SDS011;5284;50.446;7.904;2023-11-21T02:54:22;15.82;;;6.65;;
10473;SDS011;5284;50.446;7.904;2023-11-21T02:59:25;16.73;;;7.45;;
10473;SDS011;5284;50.446;7.904;2023-11-21T03:04:28;12.65;;;5.13;;
10473;SDS011;5284;50.446;7.904;2023-11-21T03:09:32;12.32;;;4.47;;
10473;SDS011;5284;50.446;7.904;2023-11-21T03:14:35;12.07;;;4.57;;
10473;SDS011;5284;50.446;7.904;2023-11-21T03:19:38;8.43;;;4.80;;
10473;SDS011;5284;50.446;7.904;2023-11-21T03:24:42;8.38;;;3.88;;
10473;SDS011;5284;50.446;7.904;2023-11-21T03:29:45;9.95;;;4.55;;
10473;SDS011;5284;50.446;7.904;2023-11-21T03:34:55;9.23;;;4.70;;
10473;SDS011;5284;50.446;7.904;2023-11-21T03:40:02;6.75;;;3.40;;
10473;SDS011;5284;50.446;7.904;2023-11-21T03:45:07;8.63;;;2.90;;
10473;SDS011;5284;50.446;7.904;2023-11-21T03:50:11;7.25;;;2.90;;
10473;SDS011;5284;50.446;7.904;2023-11-21T03:55:15;5.28;;;2.38;;
10473;SDS011;5284;50.446;7.904;2023-11-21T04:00:20;3.22;;;1.88;;
10473;SDS011;5284;50.446;7.904;2023-11-21T04:05:23;2.08;;;1.42;;
10473;SDS011;5284;50.446;7.904;2023-11-21T04:10:28;4.65;;;0.98;;
10473;SDS011;5284;50.446;7.904;2023-11-21T04:15:31;4.80;;;0.65;;
10473;SDS011;5284;50.446;7.904;2023-11-21T04:20:33;10.57;;;1.60;;
10473;SDS011;5284;50.446;7.904;2023-11-21T04:25:39;5.75;;;2.13;;
10473;SDS011;5284;50.446;7.904;2023-11-21T04:30:42;4.95;;;2.50;;
10473;SDS011;5284;50.446;7.904;2023-11-21T04:35:45;3.47;;;1.90;;
10473;SDS011;5284;50.446;7.904;2023-11-21T04:40:49;3.00;;;1.58;;
10473;SDS011;5284;50.446;7.904;2023-11-21T04:45:54;2.95;;;1.40;;
10473;SDS011;5284;50.446;7.904;2023-11-21T04:50:58;1.27;;;1.08;;
10473;SDS011;5284;50.446;7.904;2023-11-21T04:56:02;1.60;;;1.13;;
10473;SDS011;5284;50.446;7.904;2023-11-21T05:01:07;3.28;;;1.83;;
10473;SDS011;5284;50.446;7.904;2023-11-21T05:06:10;4.05;;;1.50;;
10473;SDS011;5284;50.446;7.904;2023-11-21T05:11:23;4.47;;;1.48;;
10473;SDS011;5284;50.446;7.904;2023-11-21T05:16:28;4.47;;;1.75;;
10473;SDS011;5284;50.446;7.904;2023-11-21T05:21:31;4.25;;;1.85;;
10473;SDS011;5284;50.446;7.904;2023-11-21T05:26:36;1.88;;;1.33;;
10473;SDS011;5284;50.446;7.904;2023-11-21T05:31:40;5.32;;;2.10;;
10473;SDS011;5284;50.446;7.904;2023-11-21T05:36:44;4.97;;;2.33;;
10473;SDS011;5284;50.446;7.904;2023-11-21T05:41:49;5.43;;;2.55;;
10473;SDS011;5284;50.446;7.904;2023-11-21T05:46:52;4.07;;;2.42;;
10473;SDS011;5284;50.446;7.904;2023-11-21T05:51:55;3.45;;;2.03;;
10473;SDS011;5284;50.446;7.904;2023-11-21T05:57:04;2.53;;;1.63;;
10473;SDS011;5284;50.446;7.904;2023-11-21T06:02:06;4.60;;;2.60;;
10473;SDS011;5284;50.446;7.904;2023-11-21T06:07:10;8.07;;;1.95;;
10473;SDS011;5284;50.446;7.904;2023-11-21T06:12:15;4.20;;;2.20;;
10473;SDS011;5284;50.446;7.904;2023-11-21T06:17:18;5.43;;;2.47;;
10473;SDS011;5284;50.446;7.904;2023-11-21T06:22:22;7.25;;;3.65;;
10473;SDS011;5284;50.446;7.904;2023-11-21T06:27:26;6.47;;;3.80;;
10473;SDS011;5284;50.446;7.904;2023-11-21T06:32:29;12.57;;;3.47;;
10473;SDS011;5284;50.446;7.904;2023-11-21T06:37:32;8.95;;;4.40;;
10473;SDS011;5284;50.446;7.904;2023-11-21T06:42:37;12.13;;;4.38;;
10473;SDS011;5284;50.446;7.904;2023-11-21T06:47:40;9.60;;;4.95;;
10473;SDS011;5284;50.446;7.904;2023-11-21T06:52:43;6.57;;;4.05;;
10473;SDS011;5284;50.446;7.904;2023-11-21T06:57:49;11.55;;;5.90;;
10473;SDS011;5284;50.446;7.904;2023-11-21T07:02:53;12.32;;;5.80;;
10473;SDS011;5284;50.446;7.904;2023-11-21T07:07:56;11.23;;;5.60;;
10473;SDS011;5284;50.446;7.904;2023-11-21T07:13:07;10.73;;;6.32;;
10473;SDS011;5284;50.446;7.904;2023-11-21T07:18:13;10.65;;;5.28;;
10473;SDS011;5284;50.446;7.904;2023-11-21T07:23:17;21.13;;;5.57;;
10473;SDS011;5284;50.446;7.904;2023-11-21T07:28:21;20.20;;;11.13;;
10473;SDS011;5284;50.446;7.904;2023-11-21T07:33:25;19.25;;;7.60;;
10473;SDS011;5284;50.446;7.904;2023-11-21T07:38:28;32.45;;;16.70;;
10473;SDS011;5284;50.446;7.904;2023-11-21T07:43:32;20.33;;;10.57;;
10473;SDS011;5284;50.446;7.904;2023-11-21T07:48:37;20.50;;;8.20;;
10473;SDS011;5284;50.446;7.904;2023-11-21T07:53:39;17.70;;;7.43;;
10473;SDS011;5284;50.446;7.904;2023-11-21T07:58:44;21.13;;;8.07;;
10473;SDS011;5284;50.446;7.904;2023-11-21T08:03:47;17.92;;;7.70;;
10473;SDS011;5284;50.446;7.904;2023-11-21T08:08:53;18.30;;;8.10;;
10473;SDS011;5284;50.446;7.904;2023-11-21T08:13:57;29.40;;;11.50;;
10473;SDS011;5284;50.446;7.904;2023-11-21T08:19:00;24.88;;;10.73;;
10473;SDS011;5284;50.446;7.904;2023-11-21T08:24:05;19.35;;;9.73;;
10473;SDS011;5284;50.446;7.904;2023-11-21T08:29:13;25.08;;;11.43;;
10473;SDS011;5284;50.446;7.904;2023-11-21T08:34:19;21.73;;;9.63;;
10473;SDS011;5284;50.446;7.904;2023-11-21T08:39:22;24.20;;;10.85;;
10473;SDS011;5284;50.446;7.904;2023-11-21T08:44:28;20.80;;;9.60;;
10473;SDS011;5284;50.446;7.904;2023-11-21T08:49:31;26.63;;;12.20;;
10473;SDS011;5284;50.446;7.904;2023-11-21T08:54:34;16.67;;;8.75;;
10473;SDS011;5284;50.446;7.904;2023-11-21T08:59:39;25.83;;;11.05;;
10473;SDS011;5284;50.446;7.904;2023-11-21T09:04:42;25.33;;;12.25;;
10473;SDS011;5284;50.446;7.904;2023-11-21T09:09:47;27.55;;;11.48;;
10473;SDS011;5284;50.446;7.904;2023-11-21T09:14:51;36.83;;;12.85;;
10473;SDS011;5284;50.446;7.904;2023-11-21T09:19:55;26.15;;;13.25;;
10473;SDS011;5284;50.446;7.904;2023-11-21T09:24:58;28.80;;;13.50;;
10473;SDS011;5284;50.446;7.904;2023-11-21T09:30:04;35.20;;;14.30;;
10473;SDS011;5284;50.446;7.904;2023-11-21T09:35:10;35.58;;;12.65;;
10473;SDS011;5284;50.446;7.904;2023-11-21T09:40:13;36.28;;;13.38;;
10473;SDS011;5284;50.446;7.904;2023-11-21T09:45:21;33.53;;;14.40;;
10473;SDS011;5284;50.446;7.904;2023-11-21T09:50:28;31.50;;;13.73;;
10473;SDS011;5284;50.446;7.904;2023-11-21T09:55:34;31.17;;;14.63;;
10473;SDS011;5284;50.446;7.904;2023-11-21T10:00:41;27.58;;;12.60;;
10473;SDS011;5284;50.446;7.904;2023-11-21T10:05:45;26.88;;;11.70;;
10473;SDS011;5284;50.446;7.904;2023-11-21T10:10:49;27.02;;;12.75;;
10473;SDS011;5284;50.446;7.904;2023-11-21T10:15:57;34.40;;;13.47;;
10473;SDS011;5284;50.446;7.904;2023-11-21T10:21:01;35.75;;;13.13;;
10473;SDS011;5284;50.446;7.904;2023-11-21T10:26:05;32.53;;;12.52;;
10473;SDS011;5284;50.446;7.904;2023-11-21T10:31:33;25.52;;;11.70;;
10473;SDS011;5284;50.446;7.904;2023-11-21T10:36:36;27.05;;;11.65;;
10473;SDS011;5284;50.446;7.904;2023-11-21T10:41:39;26.58;;;10.75;;
10473;SDS011;5284;50.446;7.904;2023-11-21T10:46:43;24.08;;;11.70;;
10473;SDS011;5284;50.446;7.904;2023-11-21T10:51:52;27.42;;;12.05;;
10473;SDS011;5284;50.446;7.904;2023-11-21T10:56:56;34.40;;;13.27;;
10473;SDS011;5284;50.446;7.904;2023-11-21T11:02:02;24.67;;;10.93;;
10473;SDS011;5284;50.446;7.904;2023-11-21T11:07:13;23.10;;;8.60;;
10473;SDS011;5284;50.446;7.904;2023-11-21T11:12:18;24.52;;;8.98;;
10473;SDS011;5284;50.446;7.904;2023-11-21T11:17:22;21.58;;;7.78;;
10473;SDS011;5284;50.446;7.904;2023-11-21T11:22:29;17.20;;;7.13;;
10473;SDS011;5284;50.446;7.904;2023-11-21T11:27:44;20.10;;;7.72;;
10473;SDS011;5284;50.446;7.904;2023-11-21T11:32:58;20.42;;;7.13;;
10473;SDS011;5284;50.446;7.904;2023-11-21T11:38:11;16.47;;;7.33;;
10473;SDS011;5284;50.446;7.904;2023-11-21T11:43:24;17.60;;;6.82;;
10473;SDS011;5284;50.446;7.904;2023-11-21T11:48:29;19.30;;;7.55;;
10473;SDS011;5284;50.446;7.904;2023-11-21T11:53:34;16.13;;;8.10;;
10473;SDS011;5284;50.446;7.904;2023-11-21T11:58:40;14.88;;;6.78;;
10473;SDS011;5284;50.446;7.904;2023-11-21T12:03:45;24.65;;;7.32;;
10473;SDS011;5284;50.446;7.904;2023-11-21T12:09:34;17.58;;;7.07;;
10473;SDS011;5284;50.446;7.904;2023-11-21T12:14:39;20.60;;;6.85;;
10473;SDS011;5284;50.446;7.904;2023-11-21T12:19:45;15.18;;;7.85;;
10473;SDS011;5284;50.446;7.904;2023-11-21T12:24:48;28.02;;;8.82;;
10473;SDS011;5284;50.446;7.904;2023-11-21T12:29:51;33.45;;;12.35;;
10473;SDS011;5284;50.446;7.904;2023-11-21T12:34:56;31.70;;;11.55;;
10473;SDS011;5284;50.446;7.904;2023-11-21T12:39:59;23.05;;;9.13;;
10473;SDS011;5284;50.446;7.904;2023-11-21T12:45:09;15.15;;;8.02;;
10473;SDS011;5284;50.446;7.904;2023-11-21T12:50:23;16.98;;;8.23;;
10473;SDS011;5284;50.446;7.904;2023-11-21T12:55:30;25.27;;;10.50;;
10473;SDS011;5284;50.446;7.904;2023-11-21T13:00:35;25.63;;;10.15;;
10473;SDS011;5284;50.446;7.904;2023-11-21T13:05:42;23.17;;;9.88;;
10473;SDS011;5284;50.446;7.904;2023-11-21T13:10:49;26.80;;;10.82;;
10473;SDS011;5284;50.446;7.904;2023-11-21T13:15:56;25.20;;;11.52;;
10473;SDS011;5284;50.446;7.904;2023-11-21T13:21:04;39.40;;;12.63;;
10473;SDS011;5284;50.446;7.904;2023-11-21T13:26:12;26.50;;;11.73;;
10473;SDS011;5284;50.446;7.904;2023-11-21T13:31:16;30.88;;;10.80;;
10473;SDS011;5284;50.446;7.904;2023-11-21T13:36:30;27.17;;;11.30;;
10473;SDS011;5284;50.446;7.904;2023-11-21T13:41:34;36.97;;;12.13;;
10473;SDS011;5284;50.446;7.904;2023-11-21T13:46:40;31.05;;;12.38;;
10473;SDS011;5284;50.446;7.904;2023-11-21T13:51:45;30.73;;;12.88;;
10473;SDS011;5284;50.446;7.904;2023-11-21T13:56:52;26.73;;;12.65;;
10473;SDS011;5284;50.446;7.904;2023-11-21T14:01:57;38.58;;;12.82;;
10473;SDS011;5284;50.446;7.904;2023-11-21T14:07:03;35.63;;;15.48;;
10473;SDS011;5284;50.446;7.904;2023-11-21T14:12:22;35.33;;;13.20;;
10473;SDS011;5284;50.446;7.904;2023-11-21T14:17:25;39.10;;;15.35;;
10473;SDS011;5284;50.446;7.904;2023-11-21T14:22:30;32.35;;;14.18;;
10473;SDS011;5284;50.446;7.904;2023-11-21T14:27:33;33.40;;;13.43;;
10473;SDS011;5284;50.446;7.904;2023-11-21T14:32:37;40.85;;;16.67;;
10473;SDS011;5284;50.446;7.904;2023-11-21T14:37:42;30.45;;;13.57;;
10473;SDS011;5284;50.446;7.904;2023-11-21T14:42:45;38.55;;;12.98;;
10473;SDS011;5284;50.446;7.904;2023-11-21T14:47:49;32.55;;;13.10;;
10473;SDS011;5284;50.446;7.904;2023-11-21T14:53:01;35.15;;;13.40;;
10473;SDS011;5284;50.446;7.904;2023-11-21T14:58:07;38.70;;;13.40;;
10473;SDS011;5284;50.446;7.904;2023-11-21T15:03:16;33.65;;;12.73;;
10473;SDS011;5284;50.446;7.904;2023-11-21T15:08:40;38.95;;;14.32;;
10473;SDS011;5284;50.446;7.904;2023-11-21T15:13:44;38.75;;;13.02;;
10473;SDS011;5284;50.446;7.904;2023-11-21T15:18:50;30.60;;;12.30;;
10473;SDS011;5284;50.446;7.904;2023-11-21T15:23:56;53.67;;;14.52;;
10473;SDS011;5284;50.446;7.904;2023-11-21T15:28:58;35.80;;;12.48;;
10473;SDS011;5284;50.446;7.904;2023-11-21T15:34:02;39.03;;;14.32;;
10473;SDS011;5284;50.446;7.904;2023-11-21T15:39:08;40.38;;;13.60;;
10473;SDS011;5284;50.446;7.904;2023-11-21T15:44:12;41.08;;;13.68;;
10473;SDS011;5284;50.446;7.904;2023-11-21T15:49:15;38.65;;;13.25;;
10473;SDS011;5284;50.446;7.904;2023-11-21T15:54:22;42.70;;;14.10;;
10473;SDS011;5284;50.446;7.904;2023-11-21T15:59:26;42.95;;;16.42;;
10473;SDS011;5284;50.446;7.904;2023-11-21T16:04:33;31.90;;;15.40;;
10473;SDS011;5284;50.446;7.904;2023-11-21T16:09:39;46.88;;;15.43;;
10473;SDS011;5284;50.446;7.904;2023-11-21T16:14:45;35.10;;;14.77;;
10473;SDS011;5284;50.446;7.904;2023-11-21T16:19:49;35.22;;;15.13;;
10473;SDS011;5284;50.446;7.904;2023-11-21T16:24:53;40.95;;;16.52;;
10473;SDS011;5284;50.446;7.904;2023-11-21T16:29:56;47.75;;;15.88;;
10473;SDS011;5284;50.446;7.904;2023-11-21T16:35:01;40.63;;;16.30;;
10473;SDS011;5284;50.446;7.904;2023-11-21T16:40:06;57.65;;;19.25;;
10473;SDS011;5284;50.446;7.904;2023-11-21T16:45:10;41.58;;;18.17;;
10473;SDS011;5284;50.446;7.904;2023-11-21T16:50:13;48.20;;;15.43;;
10473;SDS011;5284;50.446;7.904;2023-11-21T16:55:18;35.45;;;16.05;;
10473;SDS011;5284;50.446;7.904;2023-11-21T17:00:22;31.63;;;13.02;;
10473;SDS011;5284;50.446;7.904;2023-11-21T17:05:25;39.40;;;12.57;;
10473;SDS011;5284;50.446;7.904;2023-11-21T17:10:30;28.38;;;13.25;;
10473;SDS011;5284;50.446;7.904;2023-11-21T17:15:34;31.25;;;13.27;;
10473;SDS011;5284;50.446;7.904;2023-11-21T17:20:37;30.85;;;14.38;;
10473;SDS011;5284;50.446;7.904;2023-11-21T17:25:41;23.45;;;8.93;;
10473;SDS011;5284;50.446;7.904;2023-11-21T17:30:44;26.02;;;10.55;;
10473;SDS011;5284;50.446;7.904;2023-11-21T17:35:48;19.67;;;8.10;;
10473;SDS011;5284;50.446;7.904;2023-11-21T17:40:52;16.55;;;7.18;;
10473;SDS011;5284;50.446;7.904;2023-11-21T17:45:55;12.98;;;6.20;;
10473;SDS011;5284;50.446;7.904;2023-11-21T17:51:00;16.77;;;10.30;;
10473;SDS011;5284;50.446;7.904;2023-11-21T17:56:06;11.40;;;4.95;;
10473;SDS011;5284;50.446;7.904;2023-11-21T18:01:09;9.85;;;5.30;;
10473;SDS011;5284;50.446;7.904;2023-11-21T18:06:13;11.23;;;5.80;;
10473;SDS011;5284;50.446;7.904;2023-11-21T18:11:18;7.30;;;4.18;;
10473;SDS011;5284;50.446;7.904;2023-11-21T18:16:21;16.17;;;10.10;;
10473;SDS011;5284;50.446;7.904;2023-11-21T18:21:25;10.02;;;6.45;;
10473;SDS011;5284;50.446;7.904;2023-11-21T18:26:30;7.43;;;4.18;;
10473;SDS011;5284;50.446;7.904;2023-11-21T18:31:33;12.88;;;6.40;;
10473;SDS011;5284;50.446;7.904;2023-11-21T18:36:37;5.13;;;3.05;;
10473;SDS011;5284;50.446;7.904;2023-11-21T18:41:41;5.22;;;2.40;;
10473;SDS011;5284;50.446;7.904;2023-11-21T18:46:44;13.93;;;2.45;;
10473;SDS011;5284;50.446;7.904;2023-11-21T18:51:48;4.78;;;2.22;;
10473;SDS011;5284;50.446;7.904;2023-11-21T18:56:52;5.30;;;2.80;;
10473;SDS011;5284;50.446;7.904;2023-11-21T19:01:56;4.57;;;2.78;;
10473;SDS011;5284;50.446;7.904;2023-11-21T19:07:00;6.22;;;2.88;;
10473;SDS011;5284;50.446;7.904;2023-11-21T19:12:05;6.20;;;2.83;;
10473;SDS011;5284;50.446;7.904;2023-11-21T19:17:09;6.30;;;3.00;;
10473;SDS011;5284;50.446;7.904;2023-11-21T19:22:12;3.95;;;1.95;;
10473;SDS011;5284;50.446;7.904;2023-11-21T19:27:18;7.43;;;2.15;;
10473;SDS011;5284;50.446;7.904;2023-11-21T19:32:21;8.90;;;3.25;;
10473;SDS011;5284;50.446;7.904;2023-11-21T19:37:26;14.48;;;4.30;;
10473;SDS011;5284;50.446;7.904;2023-11-21T19:42:31;7.47;;;4.07;;
10473;SDS011;5284;50.446;7.904;2023-11-21T19:47:36;14.90;;;5.32;;
10473;SDS011;5284;50.446;7.904;2023-11-21T19:52:40;18.33;;;5.97;;
10473;SDS011;5284;50.446;7.904;2023-11-21T19:57:45;11.18;;;4.53;;
10473;SDS011;5284;50.446;7.904;2023-11-21T20:02:48;14.48;;;5.35;;
10473;SDS011;5284;50.446;7.904;2023-11-21T20:07:51;11.20;;;4.78;;
10473;SDS011;5284;50.446;7.904;2023-11-21T20:12:55;13.55;;;6.38;;
10473;SDS011;5284;50.446;7.904;2023-11-21T20:18:07;12.38;;;5.53;;
10473;SDS011;5284;50.446;7.904;2023-11-21T20:23:13;16.20;;;6.97;;
10473;SDS011;5284;50.446;7.904;2023-11-21T20:28:18;17.65;;;6.53;;
10473;SDS011;5284;50.446;7.904;2023-11-21T20:33:24;10.68;;;5.57;;
10473;SDS011;5284;50.446;7.904;2023-11-21T20:38:27;10.25;;;5.78;;
10473;SDS011;5284;50.446;7.904;2023-11-21T20:43:33;9.32;;;4.28;;
10473;SDS011;5284;50.446;7.904;2023-11-21T20:48:36;9.27;;;4.40;;
10473;SDS011;5284;50.446;7.904;2023-11-21T20:53:40;8.70;;;4.15;;
10473;SDS011;5284;50.446;7.904;2023-11-21T20:58:44;17.25;;;3.95;;
10473;SDS011;5284;50.446;7.904;2023-11-21T21:03:48;7.35;;;3.20;;
10473;SDS011;5284;50.446;7.904;2023-11-21T21:08:52;6.72;;;3.63;;
10473;SDS011;5284;50.446;7.904;2023-11-21T21:13:58;14.27;;;3.50;;
10473;SDS011;5284;50.446;7.904;2023-11-21T21:19:01;7.75;;;3.85;;
10473;SDS011;5284;50.446;7.904;2023-11-21T21:24:06;7.55;;;3.63;;
10473;SDS011;5284;50.446;7.904;2023-11-21T21:29:11;7.22;;;3.50;;
10473;SDS011;5284;50.446;7.904;2023-11-21T21:34:15;6.55;;;3.63;;
10473;SDS011;5284;50.446;7.904;2023-11-21T21:39:18;6.65;;;3.80;;
10473;SDS011;5284;50.446;7.904;2023-11-21T21:44:23;10.55;;;4.05;;
10473;SDS011;5284;50.446;7.904;2023-11-21T21:49:26;5.85;;;3.38;;
10473;SDS011;5284;50.446;7.904;2023-11-21T21:54:28;9.52;;;4.75;;
10473;SDS011;5284;50.446;7.904;2023-11-21T21:59:33;5.72;;;3.53;;
10473;SDS011;5284;50.446;7.904;2023-11-21T22:04:36;7.80;;;3.63;;
10473;SDS011;5284;50.446;7.904;2023-11-21T22:09:41;7.28;;;4.28;;
10473;SDS011;5284;50.446;7.904;2023-11-21T22:14:45;6.13;;;3.78;;
10473;SDS011;5284;50.446;7.904;2023-11-21T22:19:49;7.00;;;4.30;;
10473;SDS011;5284;50.446;7.904;2023-11-21T22:24:53;8.57;;;3.60;;
10473;SDS011;5284;50.446;7.904;2023-11-21T22:29:58;7.50;;;3.72;;
10473;SDS011;5284;50.446;7.904;2023-11-21T22:35:00;6.38;;;3.80;;
10473;SDS011;5284;50.446;7.904;2023-11-21T22:40:05;8.63;;;4.53;;
10473;SDS011;5284;50.446;7.904;2023-11-21T22:45:10;8.57;;;4.03;;
10473;SDS011;5284;50.446;7.904;2023-11-21T22:50:14;5.28;;;3.10;;
10473;SDS011;5284;50.446;7.904;2023-11-21T22:55:17;7.25;;;3.88;;
10473;SDS011;5284;50.446;7.904;2023-11-21T23:00:23;4.93;;;3.10;;
10473;SDS011;5284;50.446;7.904;2023-11-21T23:05:31;3.58;;;2.38;;
10473;SDS011;5284;50.446;7.904;2023-11-21T23:10:34;7.95;;;2.97;;
10473;SDS011;5284;50.446;7.904;2023-11-21T23:15:39;7.85;;;3.50;;
10473;SDS011;5284;50.446;7.904;2023-11-21T23:20:43;5.60;;;3.15;;
10473;SDS011;5284;50.446;7.904;2023-11-21T23:25:47;14.55;;;3.63;;
10473;SDS011;5284;50.446;7.904;2023-11-21T23:30:52;8.23;;;3.78;;
10473;SDS011;5284;50.446;7.904;2023-11-21T23:35:55;5.68;;;2.50;;
10473;SDS011;5284;50.446;7.904;2023-11-21T23:40:59;4.22;;;2.70;;
10473;SDS011;5284;50.446;7.904;2023-11-21T23:46:04;10.27;;;3.05;;
10473;SDS011;5284;50.446;7.904;2023-11-21T23:51:07;5.07;;;2.65;;
10473;SDS011;5284;50.446;7.904;2023-11-21T23:56:11;6.10;;;3.72;;
